ADDS METAR Data INFO
IDs: Format: Raw Decoded Include TAF

Data at: 2112 UTC 20 Nov 2017

METAR for:KSAT (San Antonio Intl, TX, US)
Text:KSAT 202051Z 21012KT 10SM BKN250 20/00 A3004 RMK AO2 SLP162 T02000000 56041
Temperature: 20.0°C ( 68°F)
Dewpoint: 0.0°C ( 32°F) [RH = 26%]
Pressure (altimeter):30.04 inches Hg (1017.4 mb) [Sea level pressure: 1016.2 mb]
Winds:from the SSW (210 degrees) at 14 MPH (12 knots; 6.2 m/s)
Visibility:10 or more sm (16+ km)
Ceiling:25000 feet AGL
Clouds: broken clouds at 25000 feet AGL